Time;durP1;ratioP1;P1;durP2;ratioP2;P2;SDS_P1;SDS_P2;PMS_P1;PMS_P2;Temp;Humidity;BMP_temperature;BMP_pressure;BME280_temperature;BME280_humidity;BME280_pressure;Samples;Min_cycle;Max_cycle;Signal;HPM_P1;HPM_P2
2023/09/22 00:01:16;;;;;;;5.65;2.63;;;;;;;;;;4131852;28;20577;-66
2023/09/22 00:03:18;;;;;;;;;;;;;;;;;;4132275;28;20534;-66
2023/09/22 00:05:20;;;;;;;7.38;3.20;;;;;;;;;;4131780;28;19926;-66
2023/09/22 00:07:21;;;;;;;9.68;2.67;;;;;;;;;;4131839;28;20045;-66
2023/09/22 00:09:23;;;;;;;5.78;2.53;;;;;;;;;;4131807;28;20069;-66
2023/09/22 00:11:25;;;;;;;3.47;2.97;;;;;;;;;;4131949;28;20046;-66
2023/09/22 00:13:26;;;;;;;6.30;3.00;;;;;;;;;;4131774;28;20092;-66
2023/09/22 00:15:28;;;;;;;3.88;2.88;;;;;;;;;;4131794;28;20057;-66
2023/09/22 00:17:29;;;;;;;6.93;3.00;;;;;;;;;;4131766;28;20039;-66
2023/09/22 00:19:31;;;;;;;5.68;2.25;;;;;;;;;;4131701;28;20037;-66
2023/09/22 00:21:33;;;;;;;9.18;2.55;;;;;;;;;;4119876;28;20042;-66
2023/09/22 00:23:35;;;;;;;7.53;2.72;;;;;;;;;;4115636;28;20034;-66
2023/09/22 00:25:37;;;;;;;9.13;2.90;;;;;;;;;;4115356;28;20499;-66
2023/09/22 00:27:39;;;;;;;7.65;2.65;;;;;;;;;;4115603;28;20050;-66
2023/09/22 00:29:40;;;;;;;8.13;3.05;;;;;;;;;;4115714;28;20081;-66
2023/09/22 00:31:42;;;;;;;7.70;3.65;;;;;;;;;;4115782;28;20043;-66
2023/09/22 00:33:44;;;;;;;6.63;2.60;;;;;;;;;;4130682;28;20101;-66
2023/09/22 00:35:46;;;;;;;9.63;4.22;;;;;;;;;;4131260;28;20046;-66
2023/09/22 00:37:47;;;;;;;12.93;2.78;;;;;;;;;;4131247;28;20097;-66
2023/09/22 00:39:49;;;;;;;7.55;3.35;;;;;;;;;;4131427;28;20041;-66
2023/09/22 00:41:53;;;;;;;13.38;3.10;;;;;;;;;;4131419;28;20035;-66
2023/09/22 00:43:55;;;;;;;14.48;3.42;;;;;;;;;;4131380;28;20041;-66
2023/09/22 00:45:57;;;;;;;5.35;2.78;;;;;;;;;;4131345;28;20049;-66
2023/09/22 00:47:59;;;;;;;8.90;4.00;;;;;;;;;;4131476;28;20053;-66
2023/09/22 00:50:01;;;;;;;5.22;3.42;;;;;;;;;;4131354;28;20101;-66
2023/09/22 00:52:03;;;;;;;3.25;2.72;;;;;;;;;;4131459;28;20047;-66
2023/09/22 00:54:05;;;;;;;12.77;3.10;;;;;;;;;;4131490;28;20077;-66
2023/09/22 00:56:07;;;;;;;6.72;4.03;;;;;;;;;;4131423;28;20054;-66
2023/09/22 00:58:09;;;;;;;7.85;3.00;;;;;;;;;;4130701;28;20109;-66
2023/09/22 01:00:11;;;;;;;17.67;3.83;;;;;;;;;;4131558;28;20070;-66
2023/09/22 01:02:13;;;;;;;10.85;3.58;;;;;;;;;;4131353;28;20038;-66
2023/09/22 01:04:14;;;;;;;7.50;3.30;;;;;;;;;;4118650;28;20050;-66
2023/09/22 01:06:17;;;;;;;9.32;2.65;;;;;;;;;;4114991;28;20478;-66
2023/09/22 01:08:18;;;;;;;5.47;3.42;;;;;;;;;;4115302;28;20043;-66
2023/09/22 01:10:21;;;;;;;12.80;3.78;;;;;;;;;;4115168;28;20118;-66
2023/09/22 01:12:22;;;;;;;14.07;4.38;;;;;;;;;;4115297;28;20062;-66
2023/09/22 01:14:24;;;;;;;9.52;4.18;;;;;;;;;;4115228;28;20046;-66
2023/09/22 01:16:26;;;;;;;11.43;3.28;;;;;;;;;;4115102;28;20121;-66
2023/09/22 01:18:29;;;;;;;8.10;3.13;;;;;;;;;;4115081;28;20562;-66
2023/09/22 01:20:32;;;;;;;11.25;3.33;;;;;;;;;;4115175;28;20066;-66
2023/09/22 01:22:35;;;;;;;8.20;3.50;;;;;;;;;;4115224;28;20079;-66
2023/09/22 01:24:36;;;;;;;4.82;2.22;;;;;;;;;;4115098;28;20043;-66
2023/09/22 01:26:38;;;;;;;4.38;2.45;;;;;;;;;;4115297;28;20075;-66
2023/09/22 01:28:40;;;;;;;10.75;3.75;;;;;;;;;;4119403;28;20049;-66
2023/09/22 01:30:42;;;;;;;7.95;3.00;;;;;;;;;;4131193;28;20046;-66
2023/09/22 01:32:44;;;;;;;8.65;2.83;;;;;;;;;;4131145;28;20062;-66
2023/09/22 01:34:46;;;;;;;2.83;2.47;;;;;;;;;;4131121;28;20038;-66
2023/09/22 01:36:47;;;;;;;2.90;2.35;;;;;;;;;;4131113;28;20521;-66
2023/09/22 01:38:49;;;;;;;8.35;3.03;;;;;;;;;;4130487;28;20042;-66
2023/09/22 01:40:52;;;;;;;12.35;2.95;;;;;;;;;;4131061;28;20041;-66
2023/09/22 01:42:53;;;;;;;4.40;2.92;;;;;;;;;;4131092;28;20038;-66
2023/09/22 01:44:55;;;;;;;8.35;3.58;;;;;;;;;;4131224;28;20045;-66
2023/09/22 01:46:57;;;;;;;8.88;2.83;;;;;;;;;;4127547;28;20078;-66
2023/09/22 01:48:59;;;;;;;8.90;3.13;;;;;;;;;;4129185;28;20078;-66
2023/09/22 01:51:02;;;;;;;15.75;4.68;;;;;;;;;;4133990;28;20438;-66
2023/09/22 01:53:05;;;;;;;4.30;3.60;;;;;;;;;;4134116;28;20069;-66
2023/09/22 01:55:06;;;;;;;6.35;3.28;;;;;;;;;;4133218;28;20092;-66
2023/09/22 01:57:08;;;;;;;6.10;3.20;;;;;;;;;;4132915;28;20042;-66
2023/09/22 01:59:10;;;;;;;5.15;2.95;;;;;;;;;;4133742;28;20097;-66
2023/09/22 02:01:12;;;;;;;9.32;3.47;;;;;;;;;;4133823;28;20042;-66
2023/09/22 02:03:14;;;;;;;14.02;3.65;;;;;;;;;;4133792;28;20042;-66
2023/09/22 02:05:16;;;;;;;5.70;3.00;;;;;;;;;;4133534;28;20070;-66
2023/09/22 02:07:18;;;;;;;7.97;2.90;;;;;;;;;;4133795;28;20130;-66
2023/09/22 02:09:20;;;;;;;10.93;4.50;;;;;;;;;;4133862;28;20121;-66
2023/09/22 02:11:21;;;;;;;7.38;3.70;;;;;;;;;;4133687;28;20049;-66
2023/09/22 02:13:23;;;;;;;6.97;3.47;;;;;;;;;;4127178;28;20499;-66
2023/09/22 02:15:25;;;;;;;9.43;4.63;;;;;;;;;;4117556;28;20054;-66
2023/09/22 02:17:27;;;;;;;4.35;2.80;;;;;;;;;;4117543;28;20094;-66
2023/09/22 02:19:29;;;;;;;6.85;3.60;;;;;;;;;;4117420;28;20122;-66
2023/09/22 02:21:31;;;;;;;11.02;4.15;;;;;;;;;;4117413;28;20070;-66
2023/09/22 02:23:33;;;;;;;8.27;3.15;;;;;;;;;;4117465;28;20043;-66
2023/09/22 02:25:35;;;;;;;8.55;3.35;;;;;;;;;;4126910;28;20043;-66
2023/09/22 02:27:37;;;;;;;5.70;3.50;;;;;;;;;;4133436;28;20050;-66
2023/09/22 02:29:39;;;;;;;8.45;4.15;;;;;;;;;;4133558;28;20054;-66
2023/09/22 02:31:41;;;;;;;9.05;4.18;;;;;;;;;;4133258;28;20054;-66
2023/09/22 02:33:42;;;;;;;12.23;3.85;;;;;;;;;;4133397;28;20046;-66
2023/09/22 02:35:44;;;;;;;19.10;4.65;;;;;;;;;;4133164;28;20042;-66
2023/09/22 02:37:46;;;;;;;7.30;4.78;;;;;;;;;;4133177;28;20069;-66
2023/09/22 02:39:47;;;;;;;6.85;4.35;;;;;;;;;;4132980;28;20054;-66
2023/09/22 02:41:49;;;;;;;11.77;3.50;;;;;;;;;;4133230;28;20046;-66
2023/09/22 02:43:51;;;;;;;8.18;3.65;;;;;;;;;;4133290;28;20047;-66
2023/09/22 02:45:53;;;;;;;7.60;3.25;;;;;;;;;;4133194;28;20518;-66
2023/09/22 02:47:54;;;;;;;9.32;3.72;;;;;;;;;;4132915;28;20042;-66
2023/09/22 02:49:56;;;;;;;9.27;3.63;;;;;;;;;;4133383;28;20047;-65
2023/09/22 02:51:58;;;;;;;10.25;4.07;;;;;;;;;;4133054;28;20126;-66
2023/09/22 02:54:00;;;;;;;7.68;4.57;;;;;;;;;;4132978;28;20046;-66
2023/09/22 02:56:07;;;;;;;10.45;4.05;;;;;;;;;;4132983;28;20046;-66
2023/09/22 02:58:09;;;;;;;8.70;4.13;;;;;;;;;;4132797;28;20094;-66
2023/09/22 03:00:28;;;;;;;6.70;4.00;;;;;;;;;;4132001;28;20034;-66
2023/09/22 03:02:31;;;;;;;11.68;6.38;;;;;;;;;;4117004;28;20046;-66
2023/09/22 03:04:33;;;;;;;4.63;4.13;;;;;;;;;;4116491;28;20455;-66
2023/09/22 03:06:35;;;;;;;6.72;4.80;;;;;;;;;;4116757;28;20066;-66
2023/09/22 03:08:38;;;;;;;15.48;4.63;;;;;;;;;;4115555;28;20039;-66
2023/09/22 03:10:40;;;;;;;18.95;5.18;;;;;;;;;;4116495;28;20074;-66
2023/09/22 03:12:42;;;;;;;9.13;4.55;;;;;;;;;;4116669;28;20045;-67
2023/09/22 03:14:47;;;;;;;12.50;5.63;;;;;;;;;;4116555;28;20046;-66
2023/09/22 03:16:49;;;;;;;9.35;5.25;;;;;;;;;;4116510;28;20090;-66
2023/09/22 03:18:51;;;;;;;12.50;4.43;;;;;;;;;;4116501;28;20064;-66
2023/09/22 03:20:52;;;;;;;10.82;5.55;;;;;;;;;;4118493;28;20141;-66
2023/09/22 03:22:54;;;;;;;7.53;5.55;;;;;;;;;;4132541;28;20034;-66
2023/09/22 03:24:56;;;;;;;5.40;4.72;;;;;;;;;;4132288;28;20573;-66
2023/09/22 03:26:58;;;;;;;;;;;;;;;;;;4132849;28;20553;-66
2023/09/22 03:29:00;;;;;;;7.82;4.40;;;;;;;;;;4132405;28;19965;-66
2023/09/22 03:31:03;;;;;;;6.50;5.90;;;;;;;;;;4132372;28;20046;-66
2023/09/22 03:33:05;;;;;;;16.00;5.72;;;;;;;;;;4116399;28;20051;-66
2023/09/22 03:35:08;;;;;;;11.93;5.22;;;;;;;;;;4116481;28;20058;-66
2023/09/22 03:37:10;;;;;;;15.73;5.20;;;;;;;;;;4114877;28;20090;-66
2023/09/22 03:39:12;;;;;;;20.30;5.18;;;;;;;;;;4115960;28;20053;-66
2023/09/22 03:41:16;;;;;;;12.35;4.78;;;;;;;;;;4116256;28;20031;-66
2023/09/22 03:43:17;;;;;;;9.70;4.85;;;;;;;;;;4116138;28;20781;-66
2023/09/22 03:45:19;;;;;;;9.32;5.85;;;;;;;;;;4116136;28;20074;-66
2023/09/22 03:47:20;;;;;;;10.60;4.28;;;;;;;;;;4127055;28;20047;-66
2023/09/22 03:49:22;;;;;;;8.48;4.57;;;;;;;;;;4132143;28;20061;-66
2023/09/22 03:51:24;;;;;;;6.53;4.63;;;;;;;;;;4132154;28;20451;-66
2023/09/22 03:53:27;;;;;;;9.90;5.25;;;;;;;;;;4132374;28;20553;-66
2023/09/22 03:55:29;;;;;;;11.27;4.70;;;;;;;;;;4132017;28;20050;-66
2023/09/22 03:57:31;;;;;;;13.52;5.15;;;;;;;;;;4132005;28;20039;-66
2023/09/22 03:59:33;;;;;;;6.20;5.60;;;;;;;;;;4131904;28;20046;-66
2023/09/22 04:01:35;;;;;;;9.60;5.22;;;;;;;;;;4131946;28;20415;-66
2023/09/22 04:03:37;;;;;;;7.65;5.20;;;;;;;;;;4131898;28;20074;-66
2023/09/22 04:05:39;;;;;;;6.63;5.07;;;;;;;;;;4127707;28;20057;-66
2023/09/22 04:07:41;;;;;;;5.43;4.88;;;;;;;;;;4115806;28;20082;-66
2023/09/22 04:09:44;;;;;;;13.18;5.70;;;;;;;;;;4115868;28;20046;-65
2023/09/22 04:11:46;;;;;;;10.05;4.85;;;;;;;;;;4114889;28;20070;-66
2023/09/22 04:13:47;;;;;;;9.18;6.70;;;;;;;;;;4115463;28;20047;-66
2023/09/22 04:15:58;;;;;;;6.78;5.50;;;;;;;;;;4121146;28;20086;-66
2023/09/22 04:18:01;;;;;;;12.55;5.22;;;;;;;;;;4121149;28;20039;-66
2023/09/22 04:20:07;;;;;;;4.88;4.40;;;;;;;;;;4116532;28;20071;-66
2023/09/22 04:22:12;;;;;;;8.45;5.03;;;;;;;;;;4130418;28;20042;-66
2023/09/22 04:24:15;;;;;;;11.75;5.60;;;;;;;;;;4131734;28;20094;-66
2023/09/22 04:26:16;;;;;;;15.38;6.20;;;;;;;;;;4131648;28;20070;-66
2023/09/22 04:28:23;;;;;;;7.93;5.40;;;;;;;;;;4132369;28;20560;-66
2023/09/22 04:30:25;;;;;;;9.77;5.43;;;;;;;;;;4130595;28;20121;-65
2023/09/22 04:32:33;;;;;;;10.50;4.65;;;;;;;;;;4120550;28;20447;-66
2023/09/22 04:34:35;;;;;;;10.52;4.47;;;;;;;;;;4115667;28;20125;-66
2023/09/22 04:36:37;;;;;;;11.50;5.63;;;;;;;;;;4115715;28;20057;-66
2023/09/22 04:38:38;;;;;;;5.50;4.97;;;;;;;;;;4120711;28;20050;-66
2023/09/22 04:40:40;;;;;;;3.97;3.35;;;;;;;;;;4115304;28;20035;-66
2023/09/22 04:42:42;;;;;;;5.28;4.57;;;;;;;;;;4115475;28;20039;-66
2023/09/22 04:44:45;;;;;;;5.45;4.30;;;;;;;;;;4115308;28;20043;-65
2023/09/22 04:46:46;;;;;;;7.30;5.78;;;;;;;;;;4130812;28;20046;-66
2023/09/22 04:48:49;;;;;;;9.13;4.85;;;;;;;;;;4131541;28;20133;-66
2023/09/22 04:50:54;;;;;;;9.27;5.10;;;;;;;;;;4131473;28;20069;-66
2023/09/22 04:52:56;;;;;;;5.32;4.80;;;;;;;;;;4131426;28;20045;-66
2023/09/22 04:54:57;;;;;;;6.82;5.18;;;;;;;;;;4131383;28;20054;-66
2023/09/22 04:56:59;;;;;;;7.63;4.68;;;;;;;;;;4131472;28;20054;-66
2023/09/22 04:59:01;;;;;;;5.25;4.75;;;;;;;;;;4131285;28;20570;-66
2023/09/22 05:01:03;;;;;;;9.70;4.38;;;;;;;;;;4122572;28;20071;-66
2023/09/22 05:03:05;;;;;;;15.27;4.78;;;;;;;;;;4114965;28;20129;-66
2023/09/22 05:05:07;;;;;;;7.53;5.13;;;;;;;;;;4115098;28;20059;-66
2023/09/22 05:07:09;;;;;;;10.95;4.95;;;;;;;;;;4115394;28;20105;-66
2023/09/22 05:09:11;;;;;;;8.50;4.93;;;;;;;;;;4115225;28;20043;-66
2023/09/22 05:11:13;;;;;;;8.45;5.47;;;;;;;;;;4115169;28;20046;-65
2023/09/22 05:13:18;;;;;;;7.28;5.40;;;;;;;;;;4116259;28;20074;-66
2023/09/22 05:15:20;;;;;;;16.73;7.00;;;;;;;;;;4120118;28;20511;-65
2023/09/22 05:17:22;;;;;;;12.63;6.70;;;;;;;;;;4118773;28;20074;-66
2023/09/22 05:19:23;;;;;;;11.73;6.35;;;;;;;;;;4122945;28;20046;-65
2023/09/22 05:21:26;;;;;;;8.40;5.63;;;;;;;;;;4127470;28;20502;-70
2023/09/22 05:23:28;;;;;;;15.88;7.00;;;;;;;;;;4133312;28;20049;-70
2023/09/22 05:25:30;;;;;;;11.27;6.30;;;;;;;;;;4134041;28;20039;-70
2023/09/22 05:27:32;;;;;;;8.30;6.15;;;;;;;;;;4134562;28;20053;-70
2023/09/22 05:29:34;;;;;;;9.43;5.35;;;;;;;;;;4133909;28;20042;-70
2023/09/22 05:31:36;;;;;;;13.90;6.57;;;;;;;;;;4134218;28;20050;-70
2023/09/22 05:33:38;;;;;;;14.02;7.65;;;;;;;;;;4129538;28;20724;-70
2023/09/22 05:35:40;;;;;;;13.80;6.65;;;;;;;;;;4132684;28;20042;-70
2023/09/22 05:37:42;;;;;;;;;;;;;;;;;;4133817;28;20070;-70
2023/09/22 05:39:43;;;;;;;18.25;6.32;;;;;;;;;;4133414;28;19928;-70
2023/09/22 05:41:49;;;;;;;15.02;5.90;;;;;;;;;;4134038;28;20065;-70
2023/09/22 05:43:52;;;;;;;9.15;5.47;;;;;;;;;;4133652;28;20077;-70
2023/09/22 05:45:55;;;;;;;5.88;5.38;;;;;;;;;;4133246;28;20402;-70
2023/09/22 05:47:56;;;;;;;;;;;;;;;;;;4134447;28;20042;-70
2023/09/22 05:49:59;;;;;;;8.50;6.70;;;;;;;;;;4133997;28;19922;-70
2023/09/22 05:52:01;;;;;;;12.93;6.30;;;;;;;;;;4133877;28;20069;-70
2023/09/22 05:54:03;;;;;;;7.25;6.25;;;;;;;;;;4134043;28;20046;-70
2023/09/22 05:56:08;;;;;;;9.15;5.53;;;;;;;;;;4133976;28;20053;-70
2023/09/22 05:58:11;;;;;;;9.48;6.03;;;;;;;;;;4131701;28;20070;-70
2023/09/22 06:00:16;;;;;;;10.48;6.10;;;;;;;;;;4133988;28;20049;-70
2023/09/22 06:02:19;;;;;;;9.82;6.43;;;;;;;;;;4133891;28;20042;-70
2023/09/22 06:04:21;;;;;;;6.15;5.65;;;;;;;;;;4133531;28;20082;-71
2023/09/22 06:06:23;;;;;;;8.85;6.47;;;;;;;;;;4133678;28;20046;-70
2023/09/22 06:08:25;;;;;;;9.20;6.35;;;;;;;;;;4133683;28;20051;-70
2023/09/22 06:10:26;;;;;;;7.90;6.63;;;;;;;;;;4133631;28;20450;-70
2023/09/22 06:12:29;;;;;;;7.18;6.57;;;;;;;;;;4133797;28;20050;-70
2023/09/22 06:14:31;;;;;;;12.60;6.22;;;;;;;;;;4133592;28;20125;-70
2023/09/22 06:16:32;;;;;;;16.35;7.43;;;;;;;;;;4133573;28;20042;-70
2023/09/22 06:18:34;;;;;;;10.00;5.55;;;;;;;;;;4133583;28;20538;-70
2023/09/22 06:20:36;;;;;;;15.90;7.03;;;;;;;;;;4133494;28;20065;-70
2023/09/22 06:22:37;;;;;;;13.57;6.05;;;;;;;;;;4133519;28;20584;-70
2023/09/22 06:24:39;;;;;;;16.40;7.03;;;;;;;;;;4133757;28;20046;-70
2023/09/22 06:26:41;;;;;;;21.25;5.95;;;;;;;;;;4133528;28;20395;-70
2023/09/22 06:28:42;;;;;;;12.35;6.22;;;;;;;;;;4125816;28;20091;-80
2023/09/22 06:30:46;;;;;;;11.60;6.45;;;;;;;;;;4128722;28;20077;-79
2023/09/22 06:32:48;;;;;;;7.72;5.50;;;;;;;;;;4129133;28;20384;-79
2023/09/22 06:34:52;;;;;;;9.27;5.70;;;;;;;;;;4125801;28;20062;-80
2023/09/22 06:36:54;;;;;;;7.50;5.50;;;;;;;;;;4127628;28;20077;-79
2023/09/22 06:38:56;;;;;;;;;;;;;;;;;;4132203;28;20047;-79
2023/09/22 06:40:57;;;;;;;17.00;6.18;;;;;;;;;;4131960;28;19925;-79
2023/09/22 06:43:01;;;;;;;16.42;6.28;;;;;;;;;;4131163;28;20045;-78
2023/09/22 06:45:21;;;;;;;18.48;6.00;;;;;;;;;;4129071;28;20081;-79
2023/09/22 06:47:24;;;;;;;13.35;6.43;;;;;;;;;;4131255;28;20047;-79
2023/09/22 06:49:27;;;;;;;12.27;7.03;;;;;;;;;;4123039;28;20038;-78
2023/09/22 06:51:30;;;;;;;17.20;7.63;;;;;;;;;;4124737;28;20040;-79
2023/09/22 06:53:36;;;;;;;15.73;6.95;;;;;;;;;;4131535;28;20065;-80
2023/09/22 06:55:38;;;;;;;13.75;5.95;;;;;;;;;;4130383;28;20109;-78
2023/09/22 06:57:40;;;;;;;12.68;8.40;;;;;;;;;;4129844;28;20086;-79
2023/09/22 06:59:42;;;;;;;14.93;5.43;;;;;;;;;;4104421;28;20051;-79
2023/09/22 07:01:44;;;;;;;14.00;5.80;;;;;;;;;;4099523;28;20051;-78
2023/09/22 07:03:48;;;;;;;10.07;5.38;;;;;;;;;;4129732;28;20057;-78
2023/09/22 07:05:50;;;;;;;8.52;5.40;;;;;;;;;;4114265;28;20071;-78
2023/09/22 07:07:52;;;;;;;7.50;6.35;;;;;;;;;;4130557;28;20041;-80
2023/09/22 07:09:54;;;;;;;9.18;5.07;;;;;;;;;;4130761;28;20046;-79
2023/09/22 07:11:55;;;;;;;11.43;5.93;;;;;;;;;;4128922;28;20077;-78
2023/09/22 07:13:57;;;;;;;8.90;5.70;;;;;;;;;;4102760;28;20051;-76
2023/09/22 07:15:59;;;;;;;10.07;5.72;;;;;;;;;;4130378;28;20506;-77
2023/09/22 07:18:01;;;;;;;12.73;4.90;;;;;;;;;;4130256;28;20054;-78
2023/09/22 07:20:04;;;;;;;8.70;5.05;;;;;;;;;;4130802;28;20046;-79
2023/09/22 07:22:08;;;;;;;16.73;6.18;;;;;;;;;;4129636;28;20054;-78
2023/09/22 07:24:09;;;;;;;13.38;6.53;;;;;;;;;;4130784;28;20450;-77
2023/09/22 07:26:11;;;;;;;12.02;7.32;;;;;;;;;;4114655;28;20113;-77
2023/09/22 07:28:13;;;;;;;13.60;5.93;;;;;;;;;;4129494;28;20034;-77
2023/09/22 07:30:16;;;;;;;17.50;7.22;;;;;;;;;;4132729;28;20124;-76
2023/09/22 07:32:19;;;;;;;15.57;7.18;;;;;;;;;;4118413;28;20054;-78
2023/09/22 07:34:21;;;;;;;13.18;7.68;;;;;;;;;;4126417;28;20053;-78
2023/09/22 07:36:23;;;;;;;9.05;5.78;;;;;;;;;;4124099;28;20421;-78
2023/09/22 07:38:26;;;;;;;19.58;6.97;;;;;;;;;;4116031;28;20431;-76
2023/09/22 07:40:27;;;;;;;11.65;6.18;;;;;;;;;;4116996;28;20066;-77
2023/09/22 07:42:31;;;;;;;15.48;6.55;;;;;;;;;;4124733;28;20043;-77
2023/09/22 07:44:33;;;;;;;15.68;6.38;;;;;;;;;;4130443;28;20034;-77
2023/09/22 07:46:35;;;;;;;7.28;4.97;;;;;;;;;;4123073;28;20129;-78
2023/09/22 07:48:37;;;;;;;7.30;5.13;;;;;;;;;;4130320;28;20085;-77
2023/09/22 07:50:39;;;;;;;;;;;;;;;;;;4141853;28;20039;-77
2023/09/22 07:52:43;;;;;;;15.40;5.95;;;;;;;;;;4124343;28;19929;-77
2023/09/22 07:54:45;;;;;;;16.67;5.80;;;;;;;;;;4124340;28;20129;-76
2023/09/22 07:56:47;;;;;;;15.57;5.50;;;;;;;;;;4118870;28;20049;-76
2023/09/22 07:58:51;;;;;;;13.80;6.15;;;;;;;;;;4126177;28;20046;-76
2023/09/22 08:01:15;;;;;;;14.63;5.28;;;;;;;;;;4116602;28;20418;-77
2023/09/22 08:03:21;;;;;;;20.42;4.10;;;;;;;;;;4125753;28;20101;-76
2023/09/22 08:05:24;;;;;;;12.40;5.68;;;;;;;;;;4125452;28;20070;-76
2023/09/22 08:07:27;;;;;;;14.77;5.50;;;;;;;;;;4123330;28;20077;-77
2023/09/22 08:09:29;;;;;;;9.20;4.35;;;;;;;;;;4129118;28;20042;-76
2023/09/22 08:11:31;;;;;;;13.98;4.60;;;;;;;;;;4131479;28;20078;-76
2023/09/22 08:13:36;;;;;;;11.75;4.03;;;;;;;;;;4128653;28;20038;-76
2023/09/22 08:15:38;;;;;;;14.38;5.43;;;;;;;;;;4116190;28;20511;-75
2023/09/22 08:17:41;;;;;;;9.30;4.45;;;;;;;;;;4122476;28;20050;-75
2023/09/22 08:19:43;;;;;;;13.10;5.43;;;;;;;;;;4121654;28;20097;-76
2023/09/22 08:21:46;;;;;;;7.97;4.28;;;;;;;;;;4115568;28;20625;-75
2023/09/22 08:23:49;;;;;;;15.52;4.72;;;;;;;;;;4116450;28;20042;-76
2023/09/22 08:25:56;;;;;;;16.55;4.72;;;;;;;;;;4119821;28;20074;-75
2023/09/22 08:27:58;;;;;;;14.30;5.65;;;;;;;;;;4123517;28;20058;-75
2023/09/22 08:30:02;;;;;;;12.07;4.93;;;;;;;;;;4118754;28;20058;-75
2023/09/22 08:32:04;;;;;;;8.88;4.97;;;;;;;;;;4115693;28;20045;-75
2023/09/22 08:34:11;;;;;;;13.73;4.45;;;;;;;;;;4118428;28;20053;-76
2023/09/22 08:36:14;;;;;;;10.88;5.18;;;;;;;;;;4116045;28;20078;-76
2023/09/22 08:38:16;;;;;;;9.60;4.43;;;;;;;;;;4120978;28;20039;-75
2023/09/22 08:40:17;;;;;;;11.20;3.42;;;;;;;;;;4128979;28;20085;-75
2023/09/22 08:42:20;;;;;;;9.98;4.93;;;;;;;;;;4117185;28;20407;-75
2023/09/22 08:44:24;;;;;;;10.50;3.95;;;;;;;;;;4120084;28;20049;-76
2023/09/22 08:46:26;;;;;;;14.00;3.28;;;;;;;;;;4116616;28;20043;-76
2023/09/22 08:48:28;;;;;;;12.65;4.13;;;;;;;;;;4125031;28;20472;-75
2023/09/22 08:50:30;;;;;;;8.90;2.95;;;;;;;;;;4116536;28;20043;-75
2023/09/22 08:52:32;;;;;;;;;;;;;;;;;;4115380;28;20034;-76
2023/09/22 08:54:34;;;;;;;7.85;4.22;;;;;;;;;;4115086;28;19964;-76
2023/09/22 08:56:36;;;;;;;13.82;3.78;;;;;;;;;;4115174;28;20039;-75
2023/09/22 08:58:37;;;;;;;4.95;3.10;;;;;;;;;;4121744;28;20502;-75
2023/09/22 09:00:39;;;;;;;8.90;3.67;;;;;;;;;;4121779;28;20049;-76
2023/09/22 09:02:42;;;;;;;7.18;2.63;;;;;;;;;;4122257;28;20034;-76
2023/09/22 09:04:44;;;;;;;12.63;3.72;;;;;;;;;;4119020;28;20074;-76
2023/09/22 09:06:46;;;;;;;10.40;3.78;;;;;;;;;;4118554;28;20040;-76
2023/09/22 09:09:04;;;;;;;7.45;3.72;;;;;;;;;;4125973;28;20407;-75
2023/09/22 09:11:07;;;;;;;5.28;2.63;;;;;;;;;;4120067;28;20043;-74
2023/09/22 09:13:13;;;;;;;9.25;2.80;;;;;;;;;;4119400;28;20039;-76
2023/09/22 09:15:14;;;;;;;4.00;1.88;;;;;;;;;;4118472;28;20460;-76
2023/09/22 09:17:22;;;;;;;7.15;1.63;;;;;;;;;;4124955;28;20077;-76
2023/09/22 09:19:26;;;;;;;4.82;1.60;;;;;;;;;;4133681;28;20402;-75
2023/09/22 09:21:28;;;;;;;8.50;1.92;;;;;;;;;;4128461;28;20043;-75
2023/09/22 09:23:30;;;;;;;9.45;1.60;;;;;;;;;;4126986;28;20108;-77
2023/09/22 09:25:31;;;;;;;5.82;2.58;;;;;;;;;;4130255;28;20042;-77
2023/09/22 09:27:33;;;;;;;6.70;2.03;;;;;;;;;;4126713;28;20038;-76
2023/09/22 09:29:35;;;;;;;4.32;1.70;;;;;;;;;;4125267;28;20066;-76
2023/09/22 09:31:47;;;;;;;7.28;2.50;;;;;;;;;;4123330;28;20038;-74
2023/09/22 09:33:51;;;;;;;5.88;1.67;;;;;;;;;;4125423;28;20040;-75
2023/09/22 09:35:54;;;;;;;9.27;1.92;;;;;;;;;;4118030;28;20530;-75
2023/09/22 09:38:03;;;;;;;4.13;2.67;;;;;;;;;;4117993;28;20043;-75
2023/09/22 09:40:10;;;;;;;4.93;2.08;;;;;;;;;;4143095;28;20046;-75
2023/09/22 09:42:16;;;;;;;7.55;2.60;;;;;;;;;;4130021;28;20035;-75
2023/09/22 09:44:20;;;;;;;5.00;1.77;;;;;;;;;;4127722;28;20042;-74
2023/09/22 09:46:22;;;;;;;3.65;1.30;;;;;;;;;;4119189;28;20042;-74
2023/09/22 09:48:24;;;;;;;4.43;2.25;;;;;;;;;;4119823;28;20035;-75
2023/09/22 09:50:27;;;;;;;11.85;1.63;;;;;;;;;;4131527;28;20105;-75
2023/09/22 09:52:38;;;;;;;4.95;1.75;;;;;;;;;;4124032;28;20042;-76
2023/09/22 09:54:41;;;;;;;5.25;1.23;;;;;;;;;;4120739;28;20054;-75
2023/09/22 09:56:43;;;;;;;4.13;1.52;;;;;;;;;;4121465;28;20050;-75
2023/09/22 09:58:48;;;;;;;3.88;0.90;;;;;;;;;;4125537;28;20046;-76
2023/09/22 10:00:50;;;;;;;3.85;1.40;;;;;;;;;;4117853;28;20090;-76
2023/09/22 10:02:57;;;;;;;1.88;1.35;;;;;;;;;;4120425;28;20047;-75
2023/09/22 10:05:06;;;;;;;3.75;1.10;;;;;;;;;;4118387;28;20050;-75
2023/09/22 10:07:08;;;;;;;1.83;1.60;;;;;;;;;;4116741;28;20073;-76
2023/09/22 10:09:11;;;;;;;4.07;0.90;;;;;;;;;;4124373;28;20046;-76
2023/09/22 10:11:13;;;;;;;1.73;0.93;;;;;;;;;;4121170;28;20707;-76
2023/09/22 10:13:16;;;;;;;8.05;0.98;;;;;;;;;;4123080;28;20074;-77
2023/09/22 10:15:38;;;;;;;4.18;1.08;;;;;;;;;;4124055;28;20459;-76
2023/09/22 10:17:39;;;;;;;2.08;0.95;;;;;;;;;;4118892;28;20507;-77
2023/09/22 10:19:41;;;;;;;2.05;0.93;;;;;;;;;;4133750;28;20049;-77
2023/09/22 10:21:46;;;;;;;4.35;0.95;;;;;;;;;;4133855;28;20042;-76
2023/09/22 10:24:08;;;;;;;4.35;0.90;;;;;;;;;;4128202;28;20026;-78
2023/09/22 10:26:14;;;;;;;3.63;0.90;;;;;;;;;;4116845;28;20035;-77
2023/09/22 10:28:25;;;;;;;3.42;1.08;;;;;;;;;;4117280;28;20039;-75
2023/09/22 10:30:45;;;;;;;3.55;1.00;;;;;;;;;;4117397;28;20050;-76
2023/09/22 10:32:47;;;;;;;2.17;0.80;;;;;;;;;;4116800;28;20523;-77
2023/09/22 10:34:55;;;;;;;4.47;0.80;;;;;;;;;;4117703;28;20047;-76
2023/09/22 10:37:06;;;;;;;3.83;0.95;;;;;;;;;;4126014;28;20056;-77
2023/09/22 10:39:09;;;;;;;2.72;0.90;;;;;;;;;;4126613;28;20065;-76
2023/09/22 10:41:13;;;;;;;3.13;1.23;;;;;;;;;;4124086;28;20097;-77
2023/09/22 10:43:15;;;;;;;6.43;0.98;;;;;;;;;;4126571;28;20468;-75
2023/09/22 10:45:19;;;;;;;2.30;1.00;;;;;;;;;;4128847;28;20045;-76
2023/09/22 10:47:21;;;;;;;7.85;1.10;;;;;;;;;;4127649;28;20054;-75
2023/09/22 10:49:28;;;;;;;2.13;0.80;;;;;;;;;;4119240;28;20038;-77
2023/09/22 10:51:43;;;;;;;3.05;0.90;;;;;;;;;;4131253;28;20447;-76
2023/09/22 10:53:56;;;;;;;2.42;1.00;;;;;;;;;;4126435;28;20167;-77
2023/09/22 10:55:59;;;;;;;2.72;0.80;;;;;;;;;;4129598;28;20042;-76
2023/09/22 10:58:04;;;;;;;5.25;0.80;;;;;;;;;;4116612;28;20499;-76
2023/09/22 11:00:13;;;;;;;1.05;0.70;;;;;;;;;;4122585;28;20047;-77
2023/09/22 11:02:21;;;;;;;6.55;0.80;;;;;;;;;;4121728;28;20102;-74
2023/09/22 11:04:38;;;;;;;5.60;1.48;;;;;;;;;;4124160;28;20047;-67
2023/09/22 11:06:46;;;;;;;1.58;0.77;;;;;;;;;;4114816;28;20094;-67
2023/09/22 11:08:49;;;;;;;3.00;1.20;;;;;;;;;;4118654;28;20046;-68
2023/09/22 11:10:52;;;;;;;2.05;1.30;;;;;;;;;;4129848;28;20446;-67
2023/09/22 11:12:56;;;;;;;4.35;0.93;;;;;;;;;;4132744;28;20050;-68
2023/09/22 11:15:00;;;;;;;4.30;0.93;;;;;;;;;;4132339;28;20042;-67
2023/09/22 11:17:02;;;;;;;2.90;1.02;;;;;;;;;;4131704;28;20054;-67
2023/09/22 11:19:05;;;;;;;1.33;1.08;;;;;;;;;;4122587;28;20090;-68
2023/09/22 11:21:10;;;;;;;1.00;0.80;;;;;;;;;;4116517;28;20046;-68
2023/09/22 11:23:12;;;;;;;2.00;0.90;;;;;;;;;;4132582;28;20043;-68
2023/09/22 11:25:13;;;;;;;3.97;0.90;;;;;;;;;;4126113;28;20070;-68
2023/09/22 11:27:15;;;;;;;2.67;0.90;;;;;;;;;;4127473;28;20042;-68
2023/09/22 11:29:17;;;;;;;6.20;0.90;;;;;;;;;;4116392;28;20526;-68
2023/09/22 11:31:19;;;;;;;1.05;0.95;;;;;;;;;;4118637;28;20035;-68
2023/09/22 11:33:21;;;;;;;;;;;;;;;;;;4127403;28;20046;-68
2023/09/22 11:35:33;;;;;;;2.33;1.05;;;;;;;;;;4123461;28;19930;-67
2023/09/22 11:37:35;;;;;;;;;;;;;;;;;;4126771;28;20046;-69
2023/09/22 11:39:37;;;;;;;2.60;0.80;;;;;;;;;;4127049;28;19928;-67
2023/09/22 11:41:38;;;;;;;6.50;0.80;;;;;;;;;;4127331;28;20101;-65
2023/09/22 11:43:40;;;;;;;1.33;0.70;;;;;;;;;;4120362;28;20042;-65
2023/09/22 11:45:42;;;;;;;2.90;0.80;;;;;;;;;;4124661;28;20053;-65
2023/09/22 11:47:44;;;;;;;1.67;0.80;;;;;;;;;;4127035;28;20051;-65
2023/09/22 11:49:46;;;;;;;4.85;0.85;;;;;;;;;;4123445;28;20042;-65
2023/09/22 11:51:51;;;;;;;1.00;0.70;;;;;;;;;;4126588;28;20039;-65
2023/09/22 11:53:53;;;;;;;2.63;0.98;;;;;;;;;;4122242;28;20429;-64
2023/09/22 11:55:55;;;;;;;1.90;0.70;;;;;;;;;;4116151;28;20038;-64
2023/09/22 11:57:57;;;;;;;;;;;;;;;;;;4120049;28;20081;-64
2023/09/22 11:59:59;;;;;;;1.75;0.80;;;;;;;;;;4132099;28;20015;-64
2023/09/22 12:02:01;;;;;;;0.77;0.60;;;;;;;;;;4127673;28;20074;-64
2023/09/22 12:04:09;;;;;;;1.48;0.75;;;;;;;;;;4127560;28;20117;-64
2023/09/22 12:06:13;;;;;;;2.75;0.80;;;;;;;;;;4129873;28;20499;-64
2023/09/22 12:08:15;;;;;;;2.17;0.80;;;;;;;;;;4131909;28;20042;-65
2023/09/22 12:10:17;;;;;;;0.70;0.70;;;;;;;;;;4117951;28;20507;-64
2023/09/22 12:12:19;;;;;;;2.28;0.80;;;;;;;;;;4115765;28;20043;-64
2023/09/22 12:14:23;;;;;;;3.50;1.08;;;;;;;;;;4115710;28;20098;-64
2023/09/22 12:16:25;;;;;;;6.82;0.70;;;;;;;;;;4118063;28;20042;-64
2023/09/22 12:18:27;;;;;;;;;;;;;;;;;;4116064;28;20050;-64